Flight Track Log - Related Links

Times and Time Zones

All times are in EDT time to prevent confusion due to time zone crossing. See the ACA7017 flight status page for this flight to view local times or setup timezone preferences in your user account.

Time Position Orientation Groundspeed Altitude Reporting Facility
EDT Latitude Longitude Course Direction KTS MPH feet Rate Location/Type
Mon 11:57:29 PM 38.5500 -90.1167 108° East 166 191 2,400  Level Gateway (St. Louis) TRACON
Mon 11:58:23 PM 38.5333 -90.0500 108° East 208 239 4,900 2,779 Climbing Gateway (St. Louis) TRACON
Mon 11:59:04 PM 38.5433 -90.0161 69° East 223 257 6,800 2,471 Climbing Kansas City Center
Tue 12:00:05 AM 38.6075 -90.0272 352° North 240 276 9,100 2,164 Climbing Kansas City Center
Tue 12:01:06 AM 38.6872 -90.0514 347° North 271 312 11,200 1,934 Climbing Kansas City Center
Tue 12:02:06 AM 38.7856 -90.0850 345° North 355 409 13,000 2,628 Climbing Kansas City Center
Tue 12:03:07 AM 38.8936 -90.1208 346° North 380 437 16,500 2,878 Climbing Kansas City Center
Tue 12:04:09 AM 39.0122 -90.1561 347° North 382 440 18,900 2,098 Climbing Kansas City Center
Tue 12:05:10 AM 39.1231 -90.1936 345° North 407 468 20,800 2,016 Climbing Kansas City Center
Tue 12:06:11 AM 39.2297 -90.2508 337° Northwest 415 478 23,000 1,770 Climbing Kansas City Center
Tue 12:07:12 AM 39.3417 -90.3025 340° North 423 487 24,400 1,450 Climbing Kansas City Center
Tue 12:08:11 AM 39.4569 -90.3572 340° North 435 501 25,900 1,750 Climbing Kansas City Center
Tue 12:09:12 AM 39.5742 -90.4139 340° North 443 510 27,900 2,016 Climbing Kansas City Center
Tue 12:10:13 AM 39.6853 -90.4703 339° North 436 502 30,000 1,820 Climbing Kansas City Center
Tue 12:11:14 AM 39.8119 -90.5303 340° North 433 498 31,600 1,597 Climbing Kansas City Center
Tue 12:12:17 AM 39.9261 -90.5858 340° North 433 498 33,300 1,488 Climbing Kansas City Center
Tue 12:13:19 AM 40.0386 -90.6383 340° North 432 497 34,700 1,500 Climbing Kansas City Center
Tue 12:14:17 AM 40.1497 -90.6925 340° North 429 494 36,300 1,289 Climbing Kansas City Center
Tue 12:15:20 AM 40.2603 -90.7456 340° North 426 490 37,300 823 Climbing Kansas City Center
Tue 12:16:21 AM 40.3692 -90.7978 340° North 421 484 38,000 347 Climbing Kansas City Center
Tue 12:17:21 AM 40.4767 -90.8475 341° North 413 475 38,000  Level Kansas City Center
Tue 12:18:21 AM 40.5847 -90.9006 340° North 413 475 38,000  Level Kansas City Center
Tue 12:19:22 AM 40.6919 -90.9533 340° North 413 475 38,000  Level Kansas City Center
Tue 12:20:25 AM 40.8008 -91.0067 340° North 413 475 38,000  Level Kansas City Center
Tue 12:21:24 AM 40.9092 -91.0619 339° North 413 475 38,000  Level Kansas City Center
Tue 12:22:27 AM 41.0164 -91.1144 340° North 414 476 38,000  Level Kansas City Center
Tue 12:23:46 AM 41.1650 -91.1892 339° North 408 470 38,000  Level Chicago Center
Tue 12:24:47 AM 41.2725 -91.2442 339° North 412 474 38,000  Level Chicago Center
Tue 12:25:48 AM 41.3808 -91.2964 340° North 412 474 38,000  Level Chicago Center
Tue 12:26:48 AM 41.4956 -91.3550 339° North 411 473 38,000  Level Chicago Center
Tue 12:27:49 AM 41.6028 -91.4069 340° North 411 473 38,000  Level Chicago Center
Tue 12:28:49 AM 41.7092 -91.4625 339° North 413 475 38,000  Level Chicago Center
Tue 12:29:50 AM 41.8147 -91.5161 339° North 410 472 38,000  Level Chicago Center
Tue 12:30:51 AM 41.9211 -91.5703 339° North 410 472 38,000  Level Chicago Center
Tue 12:31:51 AM 42.0286 -91.6250 339° North 413 475 38,000  Level Chicago Center
Tue 12:32:52 AM 42.1344 -91.6800 339° North 411 473 38,000  Level Chicago Center
Tue 12:33:53 AM 42.2408 -91.7339 339° North 410 472 38,000  Level Chicago Center
Tue 12:34:53 AM 42.3483 -91.7900 339° North 413 475 38,000  Level Chicago Center
Tue 12:35:54 AM 42.4553 -91.8458 339° North 412 474 38,000  Level Chicago Center
Tue 12:36:54 AM 42.5628 -91.9019 339° North 413 475 38,000  Level Chicago Center
Tue 12:37:55 AM 42.6700 -91.9572 339° North 412 474 38,000  Level Chicago Center
Tue 12:38:55 AM 42.7772 -92.0144 339° North 412 474 38,000  Level Chicago Center
Tue 12:39:56 AM 42.8850 -92.0725 338° Northwest 414 476 38,000  Level Chicago Center
Tue 12:40:56 AM 42.9922 -92.1294 339° North 413 475 38,000  Level Chicago Center
Tue 12:41:57 AM 43.1008 -92.1875 339° North 418 481 38,000  Level Chicago Center
Tue 12:42:57 AM 43.2081 -92.2444 339° North 417 480 38,000  Level Chicago Center
Tue 12:43:57 AM 43.3164 -92.3017 339° North 418 481 38,000  Level Chicago Center
Tue 12:44:58 AM 43.4453 -92.3717 338° Northwest 417 480 38,000  Level Chicago Center
Tue 12:45:58 AM 43.5506 -92.4278 339° North 410 472 38,000  Level Chicago Center
Tue 12:46:59 AM 43.6564 -92.4853 339° North 411 473 38,000  Level Chicago Center
Tue 12:47:59 AM 43.7619 -92.5422 339° North 410 472 38,000  Level Chicago Center
Tue 12:48:59 AM 43.8681 -92.6006 338° Northwest 412 474 38,000  Level Chicago Center
Tue 12:50:09 AM 43.9778 -92.6619 338° Northwest 412 474 38,000  Level Minneapolis Center
Tue 12:51:10 AM 44.0831 -92.7211 338° Northwest 412 474 38,000  Level Minneapolis Center
Tue 12:52:10 AM 44.2122 -92.7919 339° North 413 475 38,000  Level Minneapolis Center
Tue 12:53:10 AM 44.3211 -92.8522 338° Northwest 417 480 38,000  Level Minneapolis Center
Tue 12:54:11 AM 44.4294 -92.9131 338° Northwest 418 481 38,000  Level Minneapolis Center
Tue 12:55:11 AM 44.5389 -92.9747 338° Northwest 422 486 38,000  Level Minneapolis Center
Tue 12:56:11 AM 44.6483 -93.0356 338° Northwest 424 488 38,000  Level Minneapolis Center
Tue 12:57:12 AM 44.7539 -93.0958 338° Northwest 424 488 38,000  Level Minneapolis Center
Tue 12:58:12 AM 44.8611 -93.1569 338° Northwest 424 488 38,000  Level Minneapolis Center
Tue 12:59:14 AM 44.9694 -93.2178 338° Northwest 424 488 38,000  Level Minneapolis Center
Tue 01:00:14 AM 45.0800 -93.2811 338° Northwest 425 489 38,000  Level Minneapolis Center
Tue 01:01:14 AM 45.1897 -93.3442 338° Northwest 427 491 38,000  Level Minneapolis Center
Tue 01:02:14 AM 45.3003 -93.4078 338° Northwest 427 491 38,000  Level Minneapolis Center
Tue 01:03:15 AM 45.4108 -93.4722 338° Northwest 428 493 38,000  Level Minneapolis Center
Tue 01:04:15 AM 45.5222 -93.5372 338° Northwest 431 496 38,000  Level Minneapolis Center
Tue 01:05:15 AM 45.6322 -93.6003 338° Northwest 431 496 38,000  Level Minneapolis Center
Tue 01:06:16 AM 45.7422 -93.6653 338° Northwest 430 495 38,000  Level Minneapolis Center
Tue 01:07:16 AM 45.8517 -93.7303 338° Northwest 430 495 38,000  Level Minneapolis Center
Tue 01:08:16 AM 45.9608 -93.7961 337° Northwest 428 493 38,000  Level Minneapolis Center
Tue 01:09:16 AM 46.0936 -93.8731 338° Northwest 428 493 38,000  Level Minneapolis Center
Tue 01:10:17 AM 46.2031 -93.9392 337° Northwest 428 493 38,000 -50 Level Minneapolis Center
Tue 01:11:17 AM 46.3003 -93.9978 337° Northwest 421 484 37,900 -50 Descending Minneapolis Center
Tue 01:12:17 AM 46.4081 -94.0622 338° Northwest 421 484 37,900  Level Minneapolis Center
Tue 01:13:18 AM 46.5192 -94.1158 342° North 421 484 37,900 50 Level Minneapolis Center
Tue 01:14:18 AM 46.6308 -94.1761 340° North 422 486 38,000 50 Climbing Minneapolis Center
Tue 01:15:18 AM 46.7436 -94.2364 340° North 426 490 38,000  Level Minneapolis Center
Tue 01:16:18 AM 46.8572 -94.2964 340° North 430 495 38,000  Level Minneapolis Center
Tue 01:17:19 AM 46.9600 -94.3836 330° Northwest 430 495 38,000  Level Minneapolis Center
Tue 01:18:19 AM 47.0597 -94.4811 326° Northwest 430 495 38,000 -50 Level Minneapolis Center
Tue 01:19:19 AM 47.1589 -94.5764 327° Northwest 428 493 37,900 -50 Descending Minneapolis Center
Tue 01:20:19 AM 47.2586 -94.6733 327° Northwest 429 494 37,900 50 Level Minneapolis Center
Tue 01:21:20 AM 47.3583 -94.7714 326° Northwest 429 494 38,000 50 Climbing Minneapolis Center
Tue 01:22:20 AM 47.4569 -94.8697 326° Northwest 429 494 38,000  Level Minneapolis Center
Tue 01:23:20 AM 47.5569 -94.9683 326° Northwest 429 494 38,000  Level Minneapolis Center
Tue 01:24:20 AM 47.6561 -95.0653 327° Northwest 429 494 38,000 -50 Level Minneapolis Center
Tue 01:25:21 AM 47.7539 -95.1647 326° Northwest 429 494 37,900 -50 Descending Minneapolis Center
Tue 01:26:21 AM 47.8514 -95.2650 325° Northwest 429 494 37,900 50 Level Minneapolis Center
Tue 01:27:21 AM 47.9522 -95.3647 326° Northwest 429 494 38,000 50 Climbing Minneapolis Center
Tue 01:28:21 AM 48.0522 -95.4650 326° Northwest 430 495 38,000  Level Minneapolis Center
Tue 01:29:22 AM 48.1617 -95.5775 326° Northwest 430 495 38,000  Level Minneapolis Center
Tue 01:30:22 AM 48.2614 -95.6797 326° Northwest 431 496 38,000  Level Minneapolis Center
Tue 01:31:22 AM 48.3614 -95.7822 326° Northwest 432 497 38,000  Level Minneapolis Center
Tue 01:32:22 AM 48.4606 -95.8853 325° Northwest 434 499 38,000 -545 Level Minneapolis Center
Tue 01:33:23 AM 48.5600 -95.9883 326° Northwest 434 499 36,900 -1,785 Descending Minneapolis Center
Tue 01:34:23 AM 48.6581 -96.0897 326° Northwest 434 499 34,400 -2,850 Descending Minneapolis Center
Tue 01:35:23 AM 48.7539 -96.1886 326° Northwest 426 490 31,200 -3,400 Descending Minneapolis Center
Tue 01:36:23 AM 48.8478 -96.2903 325° Northwest 420 483 27,600 -3,550 Descending Minneapolis Center
Tue 01:37:23 AM 48.9442 -96.3900 326° Northwest 420 483 24,100 -3,223 Descending Minneapolis Center
Tue 01:38:24 AM 49.0356 -96.4878 325° Northwest 412 474 21,100 -2,895 Descending Minneapolis Center
Tue 01:39:46 AM 49.1500 -96.6167 324° Northwest 390 449 17,200 -2,873 Descending Winnipeg Center
Tue 01:40:46 AM 49.2333 -96.7167 322° Northwest 380 437 14,300 -2,750 Descending Winnipeg Center
Tue 01:41:46 AM 49.3167 -96.7833 332° Northwest 370 426 11,700 -1,900 Descending Winnipeg Center
Tue 01:42:46 AM 49.4000 -96.8833 322° Northwest 340 391 10,500 -1,000 Descending Winnipeg Center
Tue 01:43:46 AM 49.4667 -96.9333 334° Northwest 290 334 9,700 -1,300 Descending Winnipeg Center
Tue 01:44:46 AM 49.5333 -97.0167 321° Northwest 270 311 7,900 -1,650 Descending Winnipeg Center
Tue 01:45:46 AM 49.5833 -97.1000 313° West 270 311 6,400 -1,450 Descending Winnipeg Center
Tue 01:46:46 AM 49.6500 -97.1500 334° Northwest 260 299 5,000 -1,400 Descending Winnipeg Center
Tue 01:47:46 AM 49.7000 -97.2167 319° Northwest 260 299 3,600 -1,000 Descending Winnipeg Center
Tue 01:48:46 AM 49.7500 -97.2500 337° Northwest 220 253 3,000 -700 Descending Winnipeg Center
Tue 01:49:46 AM 49.8167 -97.2500 360° North 190 219 2,200 -800 Descending Winnipeg Center
Tue 01:50:46 AM 49.8500 -97.2500 360° North 140 161 1,400 -750 Descending Winnipeg Center
Tue 01:51:46 AM 49.8833 -97.2333 18° North 120 138 700 -700 Descending Winnipeg Center

Login

Don't have an account? Register now (free) for customized features, flight alerts, and more!